Time;durP1;ratioP1;P1;durP2;ratioP2;P2;SDS_P1;SDS_P2;PMS_P1;PMS_P2;Temp;Humidity;BMP_temperature;BMP_pressure;BME280_temperature;BME280_humidity;BME280_pressure;Samples;Min_cycle;Max_cycle;Signal;HPM_P1;HPM_P2
2022/12/07 06:49:54;;;;;;;;;45.00;37.00;;;;;;;;5082162;28;13472;-78
2022/12/07 06:52:19;;;;;;;;;48.00;39.33;;;;;;;;5084881;28;8822;-79
2022/12/07 06:54:44;;;;;;;;;43.00;37.00;;;;;;;;5084034;28;8834;-78
2022/12/07 06:57:10;;;;;;;;;46.00;38.67;;;;;;;;5086047;28;8826;-80
2022/12/07 06:59:35;;;;;;;;;39.00;37.00;;;;;;;;5085750;28;9403;-80
2022/12/07 07:02:00;;;;;;;;;40.00;34.25;;;;;;;;5086455;28;8810;-79
2022/12/07 07:04:25;;;;;;;;;38.50;34.75;;;;;;;;5086021;28;8925;-80
2022/12/07 07:06:51;;;;;;;;;48.25;40.00;;;;;;;;5084227;28;8830;-77
2022/12/07 07:09:16;;;;;;;;;42.00;40.00;;;;;;;;5086226;28;8958;-83
2022/12/07 07:11:41;;;;;;;;;39.00;33.25;;;;;;;;5085628;28;8803;-83
2022/12/07 07:14:06;;;;;;;;;47.50;42.00;;;;;;;;5085404;28;8818;-79
2022/12/07 07:16:32;;;;;;;;;51.33;44.00;;;;;;;;5100171;28;8792;-78
2022/12/07 07:18:57;;;;;;;;;45.67;44.00;;;;;;;;5107553;28;9567;-81
2022/12/07 07:21:22;;;;;;;;;52.33;43.67;;;;;;;;5092508;28;8934;-76
2022/12/07 07:23:48;;;;;;;;;41.00;37.00;;;;;;;;5086132;28;8782;-77
2022/12/07 07:26:13;;;;;;;;;38.00;35.25;;;;;;;;5085495;28;8799;-75
2022/12/07 07:28:38;;;;;;;;;40.50;37.00;;;;;;;;5085788;28;8818;-73
2022/12/07 07:31:04;;;;;;;;;44.00;38.25;;;;;;;;5085650;28;8821;-73
2022/12/07 07:33:29;;;;;;;;;43.75;36.75;;;;;;;;5085193;28;9587;-75
2022/12/07 07:35:54;;;;;;;;;50.25;43.25;;;;;;;;5085580;28;8849;-75
2022/12/07 07:38:20;;;;;;;;;48.25;39.50;;;;;;;;5085030;28;8961;-76
2022/12/07 07:40:45;;;;;;;;;49.25;43.25;;;;;;;;5085930;28;8794;-79
2022/12/07 07:43:11;;;;;;;;;47.00;43.00;;;;;;;;5086967;28;9509;-85
2022/12/07 07:45:36;;;;;;;;;52.75;44.25;;;;;;;;5090247;28;8946;-79
2022/12/07 07:48:01;;;;;;;;;55.00;45.00;;;;;;;;5105010;28;8867;-74
2022/12/07 07:50:26;;;;;;;;;44.50;41.50;;;;;;;;5106005;28;8887;-77
2022/12/07 07:52:52;;;;;;;;;49.33;43.33;;;;;;;;5106508;28;8796;-81
2022/12/07 07:55:17;;;;;;;;;59.00;47.33;;;;;;;;5106692;28;8811;-84
2022/12/07 07:57:42;;;;;;;;;61.00;49.00;;;;;;;;5107082;28;8795;-79
2022/12/07 08:00:09;;;;;;;;;61.00;47.33;;;;;;;;5096952;28;8800;-77
2022/12/07 08:02:35;;;;;;;;;68.00;53.33;;;;;;;;5067890;28;8866;-80
2022/12/07 08:05:00;;;;;;;;;61.00;49.33;;;;;;;;5072874;28;8798;-81
2022/12/07 08:07:27;;;;;;;;;62.67;49.00;;;;;;;;5072743;28;8787;-82
2022/12/07 08:09:52;;;;;;;;;64.00;49.67;;;;;;;;5072537;28;8798;-79
2022/12/07 08:12:17;;;;;;;;;64.67;49.67;;;;;;;;5073061;28;9473;-81
2022/12/07 08:14:43;;;;;;;;;64.67;52.33;;;;;;;;5072161;28;8931;-78
2022/12/07 08:17:08;;;;;;;;;62.67;48.33;;;;;;;;5072923;28;8941;-75
2022/12/07 08:19:34;;;;;;;;;64.67;52.33;;;;;;;;5071325;28;8803;-83
2022/12/07 08:21:59;;;;;;;;;68.00;55.67;;;;;;;;5072299;28;8838;-83
2022/12/07 08:24:25;;;;;;;;;60.67;49.00;;;;;;;;5072123;28;8877;-87
2022/12/07 08:26:50;;;;;;;;;71.00;55.33;;;;;;;;5071131;28;8802;-80
2022/12/07 08:29:15;;;;;;;;;68.00;54.33;;;;;;;;5072469;28;9669;-86
2022/12/07 08:31:41;;;;;;;;;61.67;51.33;;;;;;;;5072134;28;8806;-83
2022/12/07 08:34:06;;;;;;;;;66.00;53.00;;;;;;;;5072154;28;8806;-83
2022/12/07 08:36:31;;;;;;;;;60.67;51.33;;;;;;;;5072608;28;8798;-83
2022/12/07 08:38:56;;;;;;;;;66.00;52.67;;;;;;;;5070916;28;8823;-77
2022/12/07 08:41:22;;;;;;;;;64.33;52.67;;;;;;;;5071443;28;8798;-85
2022/12/07 08:43:47;;;;;;;;;69.67;52.33;;;;;;;;5071473;28;8805;-79
2022/12/07 08:46:12;;;;;;;;;72.67;54.00;;;;;;;;5081785;28;8800;-81
2022/12/07 08:48:44;;;;;;;;;71.33;54.33;;;;;;;;5091354;28;8836;-74
2022/12/07 08:51:10;;;;;;;;;71.67;54.00;;;;;;;;5091314;28;8787;-78
2022/12/07 08:53:36;;;;;;;;;66.00;53.33;;;;;;;;5080812;28;8842;-82
2022/12/07 08:56:02;;;;;;;;;65.00;51.67;;;;;;;;5069960;28;9151;-80
2022/12/07 08:58:27;;;;;;;;;62.00;50.67;;;;;;;;5068790;28;8937;-81
2022/12/07 09:00:52;;;;;;;;;72.00;54.67;;;;;;;;5070638;28;8809;-81
2022/12/07 09:03:18;;;;;;;;;62.33;47.33;;;;;;;;5071247;28;9590;-80
2022/12/07 09:05:43;;;;;;;;;64.00;47.33;;;;;;;;5071109;28;8809;-80
2022/12/07 09:08:09;;;;;;;;;61.00;47.00;;;;;;;;5071516;28;8837;-80
2022/12/07 09:10:34;;;;;;;;;59.33;47.00;;;;;;;;5071121;28;8810;-81
2022/12/07 09:13:02;;;;;;;;;59.33;47.00;;;;;;;;5070529;28;8787;-82
2022/12/07 09:15:28;;;;;;;;;51.75;42.75;;;;;;;;5076748;28;8818;-81
2022/12/07 09:17:53;;;;;;;;;46.00;40.75;;;;;;;;5107903;28;11596;-80
2022/12/07 09:20:19;;;;;;;;;57.25;44.00;;;;;;;;5112578;28;8926;-79
2022/12/07 09:22:44;;;;;;;;;47.25;42.75;;;;;;;;5110029;28;8947;-80
2022/12/07 09:25:09;;;;;;;;;38.75;38.50;;;;;;;;5108413;28;8798;-80
2022/12/07 09:27:35;;;;;;;;;43.50;37.00;;;;;;;;5111547;28;8941;-80
2022/12/07 09:30:00;;;;;;;;;46.50;42.25;;;;;;;;5095482;28;8812;-80
2022/12/07 09:32:25;;;;;;;;;44.75;40.75;;;;;;;;5093337;28;8888;-80
2022/12/07 09:34:51;;;;;;;;;42.25;35.25;;;;;;;;5091816;28;8792;-80
2022/12/07 09:37:16;;;;;;;;;50.00;40.00;;;;;;;;5091397;28;8795;-81
2022/12/07 09:39:41;;;;;;;;;41.75;38.75;;;;;;;;5091883;28;8900;-79
2022/12/07 09:42:07;;;;;;;;;50.75;41.25;;;;;;;;5092181;28;8946;-82
2022/12/07 09:44:33;;;;;;;;;48.25;40.75;;;;;;;;5090062;28;8792;-82
2022/12/07 09:46:59;;;;;;;;;53.25;43.00;;;;;;;;5091010;28;8792;-81
2022/12/07 09:49:27;;;;;;;;;40.00;32.25;;;;;;;;5090997;28;11612;-82
2022/12/07 09:52:04;;;;;;;;;42.75;35.50;;;;;;;;5090779;28;8873;-81
2022/12/07 09:54:30;;;;;;;;;39.25;35.25;;;;;;;;5091009;28;11632;-81
2022/12/07 09:56:55;;;;;;;;;39.25;38.00;;;;;;;;5090730;28;11486;-81
2022/12/07 09:59:21;;;;;;;;;41.50;38.50;;;;;;;;5091445;28;11517;-81
2022/12/07 10:01:48;;;;;;;;;40.25;39.50;;;;;;;;5089097;28;8886;-82
2022/12/07 10:04:18;;;;;;;;;42.50;38.50;;;;;;;;5090735;28;8799;-82
2022/12/07 10:06:45;;;;;;;;;16.25;6.50;;;;;;;;5090814;28;11675;-82
2022/12/07 10:09:14;;;;;;;;;38.25;31.00;;;;;;;;5090743;28;11494;-81
2022/12/07 10:11:58;;;;;;;;;47.00;37.50;;;;;;;;5090775;28;11492;-82
2022/12/07 10:14:26;;;;;;;;;40.50;29.75;;;;;;;;5090799;28;12279;-81
2022/12/07 10:16:52;;;;;;;;;36.00;33.00;;;;;;;;5090097;28;11510;-80
2022/12/07 10:19:22;;;;;;;;;32.75;28.00;;;;;;;;5090489;28;11599;-82
2022/12/07 10:22:01;;;;;;;;;29.50;28.00;;;;;;;;5090849;28;8799;-82
2022/12/07 10:24:27;;;;;;;;;40.75;32.25;;;;;;;;5088985;28;11546;-81
2022/12/07 10:26:53;;;;;;;;;37.25;30.75;;;;;;;;5090490;28;11513;-81
2022/12/07 10:29:29;;;;;;;;;40.00;31.25;;;;;;;;5090498;28;8804;-81
2022/12/07 10:31:57;;;;;;;;;33.75;33.25;;;;;;;;5090250;28;11497;-81
2022/12/07 10:34:24;;;;;;;;;39.75;36.25;;;;;;;;5090291;28;11494;-82
2022/12/07 10:36:49;;;;;;;;;37.75;35.00;;;;;;;;5090405;28;11486;-82
2022/12/07 10:39:20;;;;;;;;;41.75;33.50;;;;;;;;5090668;28;11538;-82
2022/12/07 10:42:02;;;;;;;;;41.25;32.50;;;;;;;;5090613;28;8776;-82
2022/12/07 10:44:32;;;;;;;;;38.25;34.25;;;;;;;;5088631;28;11572;-82
2022/12/07 10:46:57;;;;;;;;;39.50;34.75;;;;;;;;5089520;28;11524;-83
2022/12/07 10:49:41;;;;;;;;;35.00;29.50;;;;;;;;5089539;28;11528;-83
2022/12/07 10:52:06;;;;;;;;;34.00;30.00;;;;;;;;5089770;28;8804;-82
2022/12/07 10:54:50;;;;;;;;;35.75;28.00;;;;;;;;5089614;28;11553;-82
2022/12/07 10:57:32;;;;;;;;;42.75;31.75;;;;;;;;5090103;28;8856;-83
2022/12/07 11:00:00;;;;;;;;;40.75;32.75;;;;;;;;5089681;28;11487;-81
2022/12/07 11:02:26;;;;;;;;;34.00;31.00;;;;;;;;5089709;28;11538;-82
2022/12/07 11:05:16;;;;;;;;;40.00;31.50;;;;;;;;5089891;28;11476;-82
2022/12/07 11:07:47;;;;;;;;;34.00;27.25;;;;;;;;5091153;28;8815;-83
2022/12/07 11:10:21;;;;;;;;;32.50;29.00;;;;;;;;5090745;28;11582;-82
2022/12/07 11:12:56;;;;;;;;;32.75;31.50;;;;;;;;5090213;28;11584;-82
2022/12/07 11:15:24;;;;;;;;;33.25;27.75;;;;;;;;5089947;28;11536;-82
2022/12/07 11:17:58;;;;;;;;;20.00;18.75;;;;;;;;5090377;28;11641;-82
2022/12/07 11:20:32;;;;;;;;;25.00;24.25;;;;;;;;5089549;28;12260;-80
2022/12/07 11:23:18;;;;;;;;;30.25;24.00;;;;;;;;5088581;28;11438;-80
2022/12/07 11:25:53;;;;;;;;;24.50;22.50;;;;;;;;5089423;28;11420;-81
2022/12/07 11:28:34;;;;;;;;;23.75;21.50;;;;;;;;5089586;28;11181;-81
2022/12/07 11:31:05;;;;;;;;;26.00;21.00;;;;;;;;5089766;28;11078;-82
2022/12/07 11:33:45;;;;;;;;;22.50;21.00;;;;;;;;5090014;28;11003;-81
2022/12/07 11:36:11;;;;;;;;;21.75;21.00;;;;;;;;5092732;28;11089;-81
2022/12/07 11:38:42;;;;;;;;;15.25;14.75;;;;;;;;5094152;28;11056;-81
2022/12/07 11:41:15;;;;;;;;;23.00;19.75;;;;;;;;5092068;28;8814;-83
2022/12/07 11:43:52;;;;;;;;;19.50;16.50;;;;;;;;5093416;28;11057;-81
2022/12/07 11:46:18;;;;;;;;;16.00;16.00;;;;;;;;5092865;28;12198;-81
2022/12/07 11:48:46;;;;;;;;;20.00;18.00;;;;;;;;5092281;28;11337;-81
2022/12/07 11:51:13;;;;;;;;;20.00;19.00;;;;;;;;5093048;28;8910;-81
2022/12/07 11:53:38;;;;;;;;;17.50;15.75;;;;;;;;5091397;28;11462;-81
2022/12/07 11:56:13;;;;;;;;;21.75;19.00;;;;;;;;5093296;28;11521;-81
2022/12/07 11:58:43;;;;;;;;;19.00;19.00;;;;;;;;5091223;28;8796;-81
2022/12/07 12:01:17;;;;;;;;;26.00;21.00;;;;;;;;5092409;28;11432;-82
2022/12/07 12:03:47;;;;;;;;;19.25;16.75;;;;;;;;5092764;28;12190;-82
2022/12/07 12:06:12;;;;;;;;;20.00;17.75;;;;;;;;5092907;28;12229;-81
2022/12/07 12:08:50;;;;;;;;;21.25;18.50;;;;;;;;5092712;28;11767;-81
2022/12/07 12:11:16;;;;;;;;;23.00;18.75;;;;;;;;5092624;28;8807;-81
2022/12/07 12:13:53;;;;;;;;;21.25;20.25;;;;;;;;5092473;28;11450;-81
2022/12/07 12:16:21;;;;;;;;;21.00;17.50;;;;;;;;5092338;28;8852;-81
2022/12/07 12:18:53;;;;;;;;;23.00;18.00;;;;;;;;5091448;28;11432;-81
2022/12/07 12:21:21;;;;;;;;;24.25;20.50;;;;;;;;5092313;28;11448;-83
2022/12/07 12:23:50;;;;;;;;;27.00;24.00;;;;;;;;5092650;28;11424;-81
2022/12/07 12:26:19;;;;;;;;;24.00;21.25;;;;;;;;5092456;28;11514;-82
2022/12/07 12:28:47;;;;;;;;;20.75;18.25;;;;;;;;5092783;28;11459;-80
2022/12/07 12:31:28;;;;;;;;;29.00;28.25;;;;;;;;5092393;28;11483;-80
2022/12/07 12:33:58;;;;;;;;;30.00;26.75;;;;;;;;5092271;28;11509;-81
2022/12/07 12:36:35;;;;;;;;;24.25;23.00;;;;;;;;5092164;28;12192;-81
2022/12/07 12:39:06;;;;;;;;;28.75;25.75;;;;;;;;5092054;28;11516;-80
2022/12/07 12:44:14;;;;;;;;;23.00;22.25;;;;;;;;5092002;28;11401;-81
2022/12/07 12:46:48;;;;;;;;;26.00;20.75;;;;;;;;5091473;28;11498;-81
2022/12/07 12:49:20;;;;;;;;;20.25;20.25;;;;;;;;5092082;28;11493;-81
2022/12/07 12:51:49;;;;;;;;;24.75;22.50;;;;;;;;5092330;28;11476;-82
2022/12/07 12:54:18;;;;;;;;;13.75;13.50;;;;;;;;5092287;28;11494;-81
2022/12/07 12:56:51;;;;;;;;;13.25;13.00;;;;;;;;5092093;28;11502;-80
2022/12/07 12:59:28;;;;;;;;;14.25;11.00;;;;;;;;5092214;28;11463;-80
2022/12/07 13:01:55;;;;;;;;;12.50;11.00;;;;;;;;5091976;28;12186;-80
2022/12/07 13:04:23;;;;;;;;;13.00;10.75;;;;;;;;5090592;28;11453;-81
2022/12/07 13:06:49;;;;;;;;;16.50;12.25;;;;;;;;5091809;28;11444;-80
2022/12/07 13:09:21;;;;;;;;;12.50;12.25;;;;;;;;5091776;28;11460;-80
2022/12/07 13:11:47;;;;;;;;;12.50;9.00;;;;;;;;5091151;28;8788;-81
2022/12/07 13:14:30;;;;;;;;;14.75;12.75;;;;;;;;5090589;28;11499;-81
2022/12/07 13:16:56;;;;;;;;;11.75;10.75;;;;;;;;5090778;28;8792;-80
2022/12/07 13:19:47;;;;;;;;;14.00;12.75;;;;;;;;5092304;28;12170;-79
2022/12/07 13:22:30;;;;;;;;;13.25;11.50;;;;;;;;5092745;28;8784;-80
2022/12/07 13:24:57;;;;;;;;;11.00;11.00;;;;;;;;5092154;28;11388;-82
2022/12/07 13:27:24;;;;;;;;;17.25;12.25;;;;;;;;5102991;28;11512;-81
2022/12/07 13:29:49;;;;;;;;;11.50;9.25;;;;;;;;5107425;28;11588;-80
2022/12/07 13:32:25;;;;;;;;;15.50;10.00;;;;;;;;5097729;28;11469;-82
2022/12/07 13:34:50;;;;;;;;;11.00;11.00;;;;;;;;5090983;28;8953;-81
2022/12/07 13:37:29;;;;;;;;;14.50;12.00;;;;;;;;5089712;28;11438;-81
2022/12/07 13:40:16;;;;;;;;;13.00;11.75;;;;;;;;5090650;28;8831;-80
2022/12/07 13:42:42;;;;;;;;;13.75;12.00;;;;;;;;5090762;28;12264;-80
2022/12/07 13:45:48;;;;;;;;;11.75;11.75;;;;;;;;5090417;28;11591;-80
2022/12/07 13:48:16;;;;;;;;;10.00;10.00;;;;;;;;5067824;28;8813;-81
2022/12/07 13:50:41;;;;;;;;;12.00;11.00;;;;;;;;5050569;28;11349;-81
2022/12/07 13:53:11;;;;;;;;;7.00;7.00;;;;;;;;5067417;28;11334;-81
2022/12/07 13:55:43;;;;;;;;;5.50;4.00;;;;;;;;5067622;28;8781;-81
2022/12/07 13:58:09;;;;;;;;;10.00;10.00;;;;;;;;5066719;28;11408;-82
2022/12/07 14:00:34;;;;;;;;;8.25;6.75;;;;;;;;5050666;28;11406;-81
2022/12/07 14:02:59;;;;;;;;;6.75;6.00;;;;;;;;5068496;28;8774;-81
2022/12/07 14:05:30;;;;;;;;;12.00;11.00;;;;;;;;5051076;28;8770;-82
2022/12/07 14:07:56;;;;;;;;;8.25;8.25;;;;;;;;5067947;28;9582;-81
2022/12/07 14:10:24;;;;;;;;;7.00;7.00;;;;;;;;5066612;28;11434;-81
2022/12/07 14:12:50;;;;;;;;;10.50;5.00;;;;;;;;5067076;28;11312;-81
2022/12/07 14:15:20;;;;;;;;;8.25;6.00;;;;;;;;5064950;28;11538;-80
2022/12/07 14:20:30;;;;;;;;;7.00;7.00;;;;;;;;5047272;28;11492;-81
2022/12/07 14:22:56;;;;;;;;;6.00;5.00;;;;;;;;5049900;28;11439;-81
2022/12/07 14:25:27;;;;;;;;;8.75;7.50;;;;;;;;5032166;28;11435;-84
2022/12/07 14:27:58;;;;;;;;;8.25;7.00;;;;;;;;5050015;28;9567;-81
2022/12/07 14:30:33;;;;;;;;;10.25;8.50;;;;;;;;5050011;28;11443;-84
2022/12/07 14:33:00;;;;;;;;;8.50;7.00;;;;;;;;5050385;28;11424;-80
2022/12/07 14:35:26;;;;;;;;;5.75;4.50;;;;;;;;5037733;28;11428;-84
2022/12/07 14:37:51;;;;;;;;;7.00;7.00;;;;;;;;5040498;28;11445;-84
2022/12/07 14:40:21;;;;;;;;;4.00;4.00;;;;;;;;5044493;28;9606;-78
2022/12/07 14:42:47;;;;;;;;;8.50;7.25;;;;;;;;5023170;28;8832;-83
2022/12/07 14:45:14;;;;;;;;;7.00;6.00;;;;;;;;5034684;28;11519;-81
2022/12/07 14:47:39;;;;;;;;;8.25;7.25;;;;;;;;5033981;28;11479;-76
2022/12/07 14:50:05;;;;;;;;;7.00;7.00;;;;;;;;5036190;28;11480;-75
2022/12/07 14:52:30;;;;;;;;;8.75;7.00;;;;;;;;5038686;28;8806;-74
2022/12/07 14:54:56;;;;;;;;;7.00;7.00;;;;;;;;5021425;28;8956;-74
2022/12/07 14:57:21;;;;;;;;;6.00;6.00;;;;;;;;5037275;28;8863;-76
2022/12/07 14:59:46;;;;;;;;;9.75;6.75;;;;;;;;5039178;28;8827;-74
2022/12/07 15:02:12;;;;;;;;;7.00;6.00;;;;;;;;5016675;28;8860;-78
2022/12/07 15:04:38;;;;;;;;;4.25;4.25;;;;;;;;5035357;28;8806;-83
2022/12/07 15:07:04;;;;;;;;;8.75;6.50;;;;;;;;5039601;28;8813;-82
2022/12/07 15:09:30;;;;;;;;;6.50;5.75;;;;;;;;5029988;28;8801;-85
2022/12/07 15:11:55;;;;;;;;;7.50;7.50;;;;;;;;5042377;28;11473;-87
2022/12/07 15:14:20;;;;;;;;;5.50;5.50;;;;;;;;5024703;28;8831;-86
2022/12/07 15:16:46;;;;;;;;;11.25;8.75;;;;;;;;5047018;28;8805;-75
2022/12/07 15:19:12;;;;;;;;;8.25;7.50;;;;;;;;5052536;28;9555;-82
2022/12/07 15:21:37;;;;;;;;;8.25;6.75;;;;;;;;5048028;28;8815;-83
2022/12/07 15:24:02;;;;;;;;;10.00;7.50;;;;;;;;5053428;28;11621;-82
2022/12/07 15:26:28;;;;;;;;;8.00;8.00;;;;;;;;5053458;28;8822;-86
2022/12/07 15:28:54;;;;;;;;;7.75;6.75;;;;;;;;5035520;28;8868;-85
2022/12/07 15:31:19;;;;;;;;;7.75;6.50;;;;;;;;5041306;28;8840;-81
2022/12/07 15:33:44;;;;;;;;;6.50;6.50;;;;;;;;5032549;28;12363;-83
2022/12/07 15:36:17;;;;;;;;;6.25;5.25;;;;;;;;5033324;28;8905;-83
2022/12/07 15:38:43;;;;;;;;;7.25;5.00;;;;;;;;5033868;28;8833;-81
2022/12/07 15:41:08;;;;;;;;;7.50;6.25;;;;;;;;5033023;28;11606;-87
2022/12/07 15:46:17;;;;;;;;;7.75;7.75;;;;;;;;5040492;28;8794;-73
2022/12/07 15:48:45;;;;;;;;;9.75;6.75;;;;;;;;5048501;28;12184;-74
2022/12/07 16:59:00;;;;;;;;;24.00;19.50;;;;;;;;5000489;27;13459;-86
2022/12/07 17:01:27;;;;;;;;;19.00;17.00;;;;;;;;5011984;28;11528;-88
2022/12/07 17:03:54;;;;;;;;;25.00;23.25;;;;;;;;5000542;28;12252;-80
2022/12/07 17:06:20;;;;;;;;;21.75;18.50;;;;;;;;5001828;28;12572;-82
2022/12/07 17:08:46;;;;;;;;;27.50;21.50;;;;;;;;5001738;28;11531;-79
2022/12/07 17:11:12;;;;;;;;;24.25;22.50;;;;;;;;5002131;28;11643;-81
2022/12/07 17:16:21;;;;;;;;;41.25;37.25;;;;;;;;5004411;28;11528;-81
2022/12/07 17:18:46;;;;;;;;;38.50;32.25;;;;;;;;5005929;28;11641;-90
2022/12/07 17:21:12;;;;;;;;;39.00;33.25;;;;;;;;5005803;28;8952;-89
2022/12/07 17:23:37;;;;;;;;;50.00;39.50;;;;;;;;5003370;28;8815;-84
2022/12/07 17:26:06;;;;;;;;;41.25;34.25;;;;;;;;5008170;28;8804;-83
2022/12/07 17:28:31;;;;;;;;;27.75;25.50;;;;;;;;5005036;28;8802;-80
2022/12/07 17:30:56;;;;;;;;;33.50;29.25;;;;;;;;5001346;28;12035;-81
2022/12/07 17:33:21;;;;;;;;;27.75;25.50;;;;;;;;5001960;28;8822;-80
2022/12/07 17:35:47;;;;;;;;;27.00;24.25;;;;;;;;5006627;28;8824;-86
2022/12/07 17:38:13;;;;;;;;;26.00;20.00;;;;;;;;5004355;28;9663;-82
2022/12/07 17:40:38;;;;;;;;;23.75;20.25;;;;;;;;4999043;28;8871;-76
2022/12/07 17:43:03;;;;;;;;;44.25;39.00;;;;;;;;5003161;28;8867;-75
2022/12/07 17:45:28;;;;;;;;;60.00;48.00;;;;;;;;5015113;28;8759;-74
2022/12/07 17:47:54;;;;;;;;;24.00;21.50;;;;;;;;5022651;28;8827;-85
2022/12/07 17:53:09;;;;;;;;;36.50;30.00;;;;;;;;5021662;28;8767;-77
2022/12/07 17:53:10;;;;;;;;;30.50;28.50;;;;;;;;5015540;28;8826;-78
2022/12/07 17:55:35;;;;;;;;;18.75;16.50;;;;;;;;5010605;28;11537;-77
2022/12/07 17:58:01;;;;;;;;;34.75;32.25;;;;;;;;5003356;28;11547;-79
2022/12/07 18:00:26;;;;;;;;;33.25;31.50;;;;;;;;5007959;28;8817;-80
2022/12/07 18:02:51;;;;;;;;;27.25;25.00;;;;;;;;5008324;28;8871;-85
2022/12/07 18:05:17;;;;;;;;;31.50;28.25;;;;;;;;5000661;28;8844;-78
2022/12/07 18:07:42;;;;;;;;;25.25;23.00;;;;;;;;5000151;28;8810;-77
2022/12/07 18:10:08;;;;;;;;;27.00;24.00;;;;;;;;4992695;28;8873;-76
2022/12/07 18:12:33;;;;;;;;;23.25;21.00;;;;;;;;4996184;28;8848;-80
2022/12/07 18:14:58;;;;;;;;;29.00;27.00;;;;;;;;4988739;28;8803;-77
2022/12/07 18:17:24;;;;;;;;;27.25;27.25;;;;;;;;4987756;28;9659;-79
2022/12/07 18:19:49;;;;;;;;;29.00;25.50;;;;;;;;4994752;28;8894;-75
2022/12/07 18:22:14;;;;;;;;;31.25;29.00;;;;;;;;4994322;28;8879;-76
2022/12/07 18:24:39;;;;;;;;;27.75;24.50;;;;;;;;4987334;28;8868;-74
2022/12/07 18:27:05;;;;;;;;;20.75;19.75;;;;;;;;4987720;28;8802;-72
2022/12/07 18:29:30;;;;;;;;;24.75;24.25;;;;;;;;5009518;28;8816;-82
2022/12/07 18:31:56;;;;;;;;;25.50;23.25;;;;;;;;4987661;28;8832;-81
2022/12/07 18:34:21;;;;;;;;;23.00;22.50;;;;;;;;4988038;28;8806;-79
2022/12/07 18:36:51;;;;;;;;;27.25;24.00;;;;;;;;4988072;28;8798;-75
2022/12/07 18:39:18;;;;;;;;;21.25;19.00;;;;;;;;4993643;28;8839;-84
2022/12/07 18:41:43;;;;;;;;;27.25;23.75;;;;;;;;4991868;28;11547;-81
2022/12/07 18:44:09;;;;;;;;;30.50;26.50;;;;;;;;4988769;28;11505;-79
2022/12/07 18:46:34;;;;;;;;;29.50;28.00;;;;;;;;5001041;28;8844;-80
2022/12/07 18:48:59;;;;;;;;;31.25;29.50;;;;;;;;5009458;28;8812;-80
2022/12/07 18:51:25;;;;;;;;;36.50;29.00;;;;;;;;5008964;28;8953;-79
2022/12/07 18:53:51;;;;;;;;;34.25;31.50;;;;;;;;5009014;28;8812;-80
2022/12/07 18:56:17;;;;;;;;;39.50;36.00;;;;;;;;5007038;28;8820;-80
2022/12/07 19:01:28;;;;;;;;;32.00;28.75;;;;;;;;4987818;28;11668;-87
2022/12/07 19:03:54;;;;;;;;;27.50;24.50;;;;;;;;4989054;28;11568;-82
2022/12/07 19:06:19;;;;;;;;;36.75;29.25;;;;;;;;4988878;28;12167;-85
2022/12/07 19:08:44;;;;;;;;;30.00;30.00;;;;;;;;4988010;28;8826;-81
2022/12/07 19:14:00;;;;;;;;;30.00;29.00;;;;;;;;4989190;28;9536;-83
2022/12/07 19:16:25;;;;;;;;;32.75;27.75;;;;;;;;4989286;28;11688;-79
2022/12/07 19:18:51;;;;;;;;;32.25;27.75;;;;;;;;4989685;28;9387;-85
2022/12/07 19:21:16;;;;;;;;;45.75;38.00;;;;;;;;4990905;28;8818;-80
2022/12/07 19:23:41;;;;;;;;;33.75;31.00;;;;;;;;5090905;28;8812;-80
2022/12/07 19:26:06;;;;;;;;;37.25;32.25;;;;;;;;5090901;28;8816;-77
2022/12/07 19:28:31;;;;;;;;;34.00;34.00;;;;;;;;5085664;28;8788;-77
2022/12/07 19:30:57;;;;;;;;;33.00;33.00;;;;;;;;5032924;28;8837;-88
2022/12/07 19:33:22;;;;;;;;;40.75;36.25;;;;;;;;4989627;28;8853;-88
2022/12/07 19:35:47;;;;;;;;;33.00;32.50;;;;;;;;4988243;28;8783;-78
2022/12/07 19:38:12;;;;;;;;;36.75;34.25;;;;;;;;4987767;28;8866;-77
2022/12/07 19:40:38;;;;;;;;;26.00;25.75;;;;;;;;4987582;28;8791;-77
2022/12/07 19:43:03;;;;;;;;;35.75;29.25;;;;;;;;4988726;28;8909;-88
2022/12/07 19:45:31;;;;;;;;;29.50;22.75;;;;;;;;4991688;28;8952;-84
2022/12/07 19:47:56;;;;;;;;;39.75;33.75;;;;;;;;4989912;28;8842;-83
2022/12/07 19:50:22;;;;;;;;;30.75;28.00;;;;;;;;4987194;28;11564;-81
2022/12/07 19:52:47;;;;;;;;;36.75;33.25;;;;;;;;4985530;28;8941;-77
2022/12/07 19:55:12;;;;;;;;;32.00;28.75;;;;;;;;4986800;28;8807;-82
2022/12/07 19:57:37;;;;;;;;;29.00;23.25;;;;;;;;4983485;28;8956;-79
2022/12/07 20:00:04;;;;;;;;;28.50;26.50;;;;;;;;4984221;28;8802;-78
2022/12/07 20:02:29;;;;;;;;;30.75;27.50;;;;;;;;4985289;28;8991;-85
2022/12/07 20:04:54;;;;;;;;;36.50;34.75;;;;;;;;4987040;28;11535;-87
2022/12/07 20:07:19;;;;;;;;;35.00;31.75;;;;;;;;4986693;28;8847;-79
2022/12/07 20:09:45;;;;;;;;;30.75;26.75;;;;;;;;4985063;28;9736;-80
2022/12/07 20:14:54;;;;;;;;;29.50;22.75;;;;;;;;4985316;28;8787;-79
2022/12/07 20:17:20;;;;;;;;;28.00;26.75;;;;;;;;4986525;28;12361;-74
2022/12/07 20:19:46;;;;;;;;;27.00;24.50;;;;;;;;4985179;28;9540;-81
2022/12/07 20:22:11;;;;;;;;;26.50;21.50;;;;;;;;4986649;28;8810;-80
2022/12/07 20:24:36;;;;;;;;;26.50;21.75;;;;;;;;4986556;28;8975;-76
2022/12/07 20:27:03;;;;;;;;;28.50;26.25;;;;;;;;5007235;28;8843;-79
2022/12/07 20:29:28;;;;;;;;;26.00;25.00;;;;;;;;4986438;28;8794;-76
2022/12/07 20:31:54;;;;;;;;;21.75;20.00;;;;;;;;4985814;28;11538;-75
2022/12/07 20:34:19;;;;;;;;;24.00;20.25;;;;;;;;4986603;28;8821;-80
2022/12/07 20:36:44;;;;;;;;;27.00;22.00;;;;;;;;4986154;28;8811;-79
2022/12/07 20:39:10;;;;;;;;;26.25;23.75;;;;;;;;4986572;28;8790;-81
2022/12/07 20:44:20;;;;;;;;;22.75;21.75;;;;;;;;4986413;28;8949;-81
2022/12/07 20:46:46;;;;;;;;;25.00;21.75;;;;;;;;4988741;28;11576;-81
2022/12/07 20:49:14;;;;;;;;;24.25;21.75;;;;;;;;4985110;28;8818;-88
2022/12/07 20:51:39;;;;;;;;;24.75;20.75;;;;;;;;4986825;28;8849;-88
2022/12/07 20:54:05;;;;;;;;;23.50;21.25;;;;;;;;4987168;28;11535;-88
2022/12/07 20:56:31;;;;;;;;;21.25;19.00;;;;;;;;4986783;28;8798;-86
2022/12/07 20:58:57;;;;;;;;;26.75;25.25;;;;;;;;4986413;28;8815;-88
2022/12/07 21:01:23;;;;;;;;;27.00;22.50;;;;;;;;4985127;28;11557;-86
2022/12/07 21:03:48;;;;;;;;;30.50;22.50;;;;;;;;4985240;28;11555;-88
2022/12/07 21:06:15;;;;;;;;;24.25;21.00;;;;;;;;4986746;28;8814;-88
2022/12/07 21:08:44;;;;;;;;;22.00;22.00;;;;;;;;4987617;28;8929;-88
2022/12/07 21:11:09;;;;;;;;;19.00;19.00;;;;;;;;4986765;28;11545;-87
2022/12/07 21:13:34;;;;;;;;;28.50;25.75;;;;;;;;4993224;28;11638;-87
2022/12/07 21:16:00;;;;;;;;;29.25;23.00;;;;;;;;4987405;28;8826;-88
2022/12/07 21:18:25;;;;;;;;;18.50;15.75;;;;;;;;4986111;28;8934;-86
2022/12/07 21:20:50;;;;;;;;;26.50;25.00;;;;;;;;4985724;28;9012;-88
2022/12/07 21:23:15;;;;;;;;;31.50;28.25;;;;;;;;4988032;28;8795;-89
2022/12/07 21:25:41;;;;;;;;;31.00;26.75;;;;;;;;4986278;28;8833;-89
2022/12/07 21:28:06;;;;;;;;;29.75;24.00;;;;;;;;4986180;28;8818;-88
2022/12/07 21:30:31;;;;;;;;;35.75;28.50;;;;;;;;4987799;28;8842;-90
2022/12/07 21:32:57;;;;;;;;;26.75;26.00;;;;;;;;4987460;28;8834;-88
2022/12/07 21:35:22;;;;;;;;;29.00;21.75;;;;;;;;4986738;28;8814;-89
2022/12/07 21:37:47;;;;;;;;;22.00;22.00;;;;;;;;4986752;28;8834;-89
2022/12/07 21:40:12;;;;;;;;;26.25;23.00;;;;;;;;4987700;28;8798;-89
2022/12/07 21:42:38;;;;;;;;;23.50;22.50;;;;;;;;4987615;28;8786;-89
2022/12/07 21:45:03;;;;;;;;;34.25;25.75;;;;;;;;4989872;28;8934;-89
2022/12/07 21:47:28;;;;;;;;;27.00;22.50;;;;;;;;4989648;28;8893;-89
2022/12/07 21:49:54;;;;;;;;;29.50;23.50;;;;;;;;4990667;28;8887;-87
2022/12/07 21:52:19;;;;;;;;;31.00;24.50;;;;;;;;4991040;28;9545;-87
2022/12/07 21:54:44;;;;;;;;;27.50;25.50;;;;;;;;4990614;28;8887;-88
2022/12/07 21:57:10;;;;;;;;;32.50;25.75;;;;;;;;4991575;28;8842;-88
2022/12/07 21:59:35;;;;;;;;;25.25;23.75;;;;;;;;5006398;28;8813;-89
2022/12/07 22:02:00;;;;;;;;;29.50;28.00;;;;;;;;5012383;28;8809;-88
2022/12/07 22:04:26;;;;;;;;;35.00;31.50;;;;;;;;5013468;28;8759;-89
2022/12/07 22:06:52;;;;;;;;;28.25;25.00;;;;;;;;5014084;28;8782;-89
2022/12/07 22:09:17;;;;;;;;;32.25;27.75;;;;;;;;5012168;28;8834;-91
2022/12/07 22:11:43;;;;;;;;;28.50;28.25;;;;;;;;5012882;28;8802;-93
2022/12/07 22:16:52;;;;;;;;;27.25;24.50;;;;;;;;5011670;28;8901;-94
2022/12/07 22:19:18;;;;;;;;;28.50;26.75;;;;;;;;5004736;28;11607;-90
2022/12/07 22:21:43;;;;;;;;;33.00;26.25;;;;;;;;4992444;28;9210;-88
2022/12/07 22:24:09;;;;;;;;;30.00;23.00;;;;;;;;4995997;28;8852;-93
2022/12/07 22:26:34;;;;;;;;;27.50;24.00;;;;;;;;4997185;28;8794;-90
2022/12/07 22:29:00;;;;;;;;;28.50;26.25;;;;;;;;4991472;28;11667;-87
2022/12/07 22:31:25;;;;;;;;;32.00;28.33;;;;;;;;4989837;28;8933;-77
2022/12/07 22:33:50;;;;;;;;;28.75;24.75;;;;;;;;4989469;28;9002;-83
2022/12/07 22:36:16;;;;;;;;;31.00;27.75;;;;;;;;4988629;28;9147;-87
2022/12/07 22:38:42;;;;;;;;;26.25;21.25;;;;;;;;4988209;28;8858;-84
2022/12/07 22:41:11;;;;;;;;;29.67;27.00;;;;;;;;4987546;28;8857;-81
2022/12/07 22:43:37;;;;;;;;;26.00;23.75;;;;;;;;4989833;28;8849;-84
2022/12/07 22:46:02;;;;;;;;;22.50;21.75;;;;;;;;4989775;28;11480;-82
2022/12/07 22:48:27;;;;;;;;;27.75;24.50;;;;;;;;4989893;28;8802;-83
2022/12/07 22:50:53;;;;;;;;;28.00;26.33;;;;;;;;4989677;28;8975;-82